sensor_id;sensor_type;location;lat;lon;timestamp;P1;durP1;ratioP1;P2;durP2;ratioP2
74689;SDS011;63221;51.860;-2.188;2023-06-10T00:00:00;11.27;;;5.90;;
74689;SDS011;63221;51.860;-2.188;2023-06-10T00:02:26;14.82;;;5.90;;
74689;SDS011;63221;51.860;-2.188;2023-06-10T00:04:52;15.05;;;6.97;;
74689;SDS011;63221;51.860;-2.188;2023-06-10T00:07:18;15.70;;;6.00;;
74689;SDS011;63221;51.860;-2.188;2023-06-10T00:09:43;13.73;;;6.20;;
74689;SDS011;63221;51.860;-2.188;2023-06-10T00:12:09;14.37;;;5.77;;
74689;SDS011;63221;51.860;-2.188;2023-06-10T00:14:36;10.63;;;5.28;;
74689;SDS011;63221;51.860;-2.188;2023-06-10T00:17:03;12.30;;;6.60;;
74689;SDS011;63221;51.860;-2.188;2023-06-10T00:19:28;10.93;;;5.87;;
74689;SDS011;63221;51.860;-2.188;2023-06-10T00:21:55;12.18;;;5.75;;
74689;SDS011;63221;51.860;-2.188;2023-06-10T00:24:21;17.85;;;6.93;;
74689;SDS011;63221;51.860;-2.188;2023-06-10T00:26:47;17.67;;;6.53;;
74689;SDS011;63221;51.860;-2.188;2023-06-10T00:29:12;15.52;;;6.93;;
74689;SDS011;63221;51.860;-2.188;2023-06-10T00:31:39;12.40;;;6.18;;
74689;SDS011;63221;51.860;-2.188;2023-06-10T00:34:04;14.97;;;6.13;;
74689;SDS011;63221;51.860;-2.188;2023-06-10T00:36:30;15.97;;;6.80;;
74689;SDS011;63221;51.860;-2.188;2023-06-10T00:38:55;15.60;;;7.13;;
74689;SDS011;63221;51.860;-2.188;2023-06-10T00:41:21;14.05;;;6.80;;
74689;SDS011;63221;51.860;-2.188;2023-06-10T00:43:47;15.33;;;6.20;;
74689;SDS011;63221;51.860;-2.188;2023-06-10T00:46:12;11.48;;;6.57;;
74689;SDS011;63221;51.860;-2.188;2023-06-10T00:48:39;16.33;;;6.73;;
74689;SDS011;63221;51.860;-2.188;2023-06-10T00:51:05;13.65;;;7.07;;
74689;SDS011;63221;51.860;-2.188;2023-06-10T00:53:34;14.10;;;7.60;;
74689;SDS011;63221;51.860;-2.188;2023-06-10T00:56:00;18.85;;;7.90;;
74689;SDS011;63221;51.860;-2.188;2023-06-10T00:58:26;19.23;;;7.80;;
74689;SDS011;63221;51.860;-2.188;2023-06-10T01:00:51;20.27;;;7.63;;
74689;SDS011;63221;51.860;-2.188;2023-06-10T01:03:18;14.32;;;7.53;;
74689;SDS011;63221;51.860;-2.188;2023-06-10T01:05:44;17.33;;;8.17;;
74689;SDS011;63221;51.860;-2.188;2023-06-10T01:08:20;16.73;;;7.57;;
74689;SDS011;63221;51.860;-2.188;2023-06-10T01:10:52;17.98;;;9.52;;
74689;SDS011;63221;51.860;-2.188;2023-06-10T01:13:20;15.48;;;7.10;;
74689;SDS011;63221;51.860;-2.188;2023-06-10T01:15:49;16.45;;;8.00;;
74689;SDS011;63221;51.860;-2.188;2023-06-10T01:18:14;25.87;;;8.43;;
74689;SDS011;63221;51.860;-2.188;2023-06-10T01:20:40;19.83;;;8.23;;
74689;SDS011;63221;51.860;-2.188;2023-06-10T01:23:08;19.53;;;8.40;;
74689;SDS011;63221;51.860;-2.188;2023-06-10T01:25:36;21.95;;;8.77;;
74689;SDS011;63221;51.860;-2.188;2023-06-10T01:28:04;17.17;;;8.25;;
74689;SDS011;63221;51.860;-2.188;2023-06-10T01:30:57;18.50;;;7.82;;
74689;SDS011;63221;51.860;-2.188;2023-06-10T01:33:29;19.42;;;8.05;;
74689;SDS011;63221;51.860;-2.188;2023-06-10T01:35:57;24.10;;;9.10;;
74689;SDS011;63221;51.860;-2.188;2023-06-10T01:38:25;17.58;;;8.35;;
74689;SDS011;63221;51.860;-2.188;2023-06-10T01:40:52;18.20;;;8.25;;
74689;SDS011;63221;51.860;-2.188;2023-06-10T01:43:19;17.50;;;8.82;;
74689;SDS011;63221;51.860;-2.188;2023-06-10T01:45:45;18.58;;;9.15;;
74689;SDS011;63221;51.860;-2.188;2023-06-10T01:48:10;17.77;;;8.17;;
74689;SDS011;63221;51.860;-2.188;2023-06-10T01:50:36;29.17;;;11.27;;
74689;SDS011;63221;51.860;-2.188;2023-06-10T01:53:01;21.43;;;9.37;;
74689;SDS011;63221;51.860;-2.188;2023-06-10T01:55:27;18.65;;;9.27;;
74689;SDS011;63221;51.860;-2.188;2023-06-10T01:57:52;18.37;;;10.00;;
74689;SDS011;63221;51.860;-2.188;2023-06-10T02:00:18;23.30;;;9.17;;
74689;SDS011;63221;51.860;-2.188;2023-06-10T02:02:43;20.70;;;9.60;;
74689;SDS011;63221;51.860;-2.188;2023-06-10T02:05:09;21.88;;;9.15;;
74689;SDS011;63221;51.860;-2.188;2023-06-10T02:07:34;19.97;;;8.70;;
74689;SDS011;63221;51.860;-2.188;2023-06-10T02:10:00;18.10;;;9.33;;
74689;SDS011;63221;51.860;-2.188;2023-06-10T02:12:25;21.35;;;9.32;;
74689;SDS011;63221;51.860;-2.188;2023-06-10T02:14:51;19.93;;;9.57;;
74689;SDS011;63221;51.860;-2.188;2023-06-10T02:17:16;25.60;;;10.30;;
74689;SDS011;63221;51.860;-2.188;2023-06-10T02:19:41;24.77;;;9.87;;
74689;SDS011;63221;51.860;-2.188;2023-06-10T02:22:08;23.60;;;10.07;;
74689;SDS011;63221;51.860;-2.188;2023-06-10T02:24:35;23.20;;;9.80;;
74689;SDS011;63221;51.860;-2.188;2023-06-10T02:27:01;25.20;;;9.90;;
74689;SDS011;63221;51.860;-2.188;2023-06-10T02:29:27;22.48;;;8.75;;
74689;SDS011;63221;51.860;-2.188;2023-06-10T02:31:52;19.73;;;9.87;;
74689;SDS011;63221;51.860;-2.188;2023-06-10T02:34:18;20.02;;;10.75;;
74689;SDS011;63221;51.860;-2.188;2023-06-10T02:36:43;20.17;;;9.63;;
74689;SDS011;63221;51.860;-2.188;2023-06-10T02:39:09;17.92;;;9.20;;
74689;SDS011;63221;51.860;-2.188;2023-06-10T02:41:34;21.27;;;9.30;;
74689;SDS011;63221;51.860;-2.188;2023-06-10T02:44:00;22.83;;;10.13;;
74689;SDS011;63221;51.860;-2.188;2023-06-10T02:46:26;21.23;;;9.93;;
74689;SDS011;63221;51.860;-2.188;2023-06-10T02:48:53;21.87;;;9.70;;
74689;SDS011;63221;51.860;-2.188;2023-06-10T02:51:19;21.73;;;9.55;;
74689;SDS011;63221;51.860;-2.188;2023-06-10T02:53:45;24.80;;;11.35;;
74689;SDS011;63221;51.860;-2.188;2023-06-10T02:56:11;24.57;;;10.50;;
74689;SDS011;63221;51.860;-2.188;2023-06-10T02:58:37;27.83;;;10.70;;
74689;SDS011;63221;51.860;-2.188;2023-06-10T03:01:03;23.63;;;10.18;;
74689;SDS011;63221;51.860;-2.188;2023-06-10T03:03:28;17.83;;;9.97;;
74689;SDS011;63221;51.860;-2.188;2023-06-10T03:05:55;23.33;;;10.82;;
74689;SDS011;63221;51.860;-2.188;2023-06-10T03:08:21;22.50;;;10.38;;
74689;SDS011;63221;51.860;-2.188;2023-06-10T03:10:47;25.23;;;10.43;;
74689;SDS011;63221;51.860;-2.188;2023-06-10T03:13:12;21.83;;;9.80;;
74689;SDS011;63221;51.860;-2.188;2023-06-10T03:15:39;21.00;;;10.43;;
74689;SDS011;63221;51.860;-2.188;2023-06-10T03:18:06;24.77;;;10.45;;
74689;SDS011;63221;51.860;-2.188;2023-06-10T03:20:32;19.98;;;9.50;;
74689;SDS011;63221;51.860;-2.188;2023-06-10T03:23:02;18.57;;;9.50;;
74689;SDS011;63221;51.860;-2.188;2023-06-10T03:25:27;23.30;;;9.43;;
74689;SDS011;63221;51.860;-2.188;2023-06-10T03:27:53;18.70;;;10.02;;
74689;SDS011;63221;51.860;-2.188;2023-06-10T03:30:19;19.33;;;9.60;;
74689;SDS011;63221;51.860;-2.188;2023-06-10T03:32:44;23.40;;;9.70;;
74689;SDS011;63221;51.860;-2.188;2023-06-10T03:35:10;16.70;;;9.37;;
74689;SDS011;63221;51.860;-2.188;2023-06-10T03:37:35;19.83;;;9.17;;
74689;SDS011;63221;51.860;-2.188;2023-06-10T03:40:01;24.55;;;9.73;;
74689;SDS011;63221;51.860;-2.188;2023-06-10T03:42:26;20.63;;;8.23;;
74689;SDS011;63221;51.860;-2.188;2023-06-10T03:44:51;21.67;;;8.90;;
74689;SDS011;63221;51.860;-2.188;2023-06-10T03:47:17;17.48;;;9.07;;
74689;SDS011;63221;51.860;-2.188;2023-06-10T03:49:43;22.33;;;9.07;;
74689;SDS011;63221;51.860;-2.188;2023-06-10T03:52:08;17.13;;;8.53;;
74689;SDS011;63221;51.860;-2.188;2023-06-10T03:54:33;18.33;;;9.35;;
74689;SDS011;63221;51.860;-2.188;2023-06-10T03:57:00;16.83;;;7.93;;
74689;SDS011;63221;51.860;-2.188;2023-06-10T03:59:25;19.45;;;9.35;;
74689;SDS011;63221;51.860;-2.188;2023-06-10T04:01:51;22.47;;;9.60;;
74689;SDS011;63221;51.860;-2.188;2023-06-10T04:04:16;24.60;;;9.20;;
74689;SDS011;63221;51.860;-2.188;2023-06-10T04:06:42;21.07;;;9.27;;
74689;SDS011;63221;51.860;-2.188;2023-06-10T04:09:08;18.95;;;8.52;;
74689;SDS011;63221;51.860;-2.188;2023-06-10T04:11:34;23.07;;;9.30;;
74689;SDS011;63221;51.860;-2.188;2023-06-10T04:14:00;17.52;;;8.23;;
74689;SDS011;63221;51.860;-2.188;2023-06-10T04:16:26;15.40;;;8.65;;
74689;SDS011;63221;51.860;-2.188;2023-06-10T04:18:52;21.13;;;10.27;;
74689;SDS011;63221;51.860;-2.188;2023-06-10T04:21:17;19.85;;;9.10;;
74689;SDS011;63221;51.860;-2.188;2023-06-10T04:23:43;22.03;;;9.03;;
74689;SDS011;63221;51.860;-2.188;2023-06-10T04:26:08;24.87;;;9.63;;
74689;SDS011;63221;51.860;-2.188;2023-06-10T04:28:34;16.90;;;8.27;;
74689;SDS011;63221;51.860;-2.188;2023-06-10T04:31:01;23.60;;;8.55;;
74689;SDS011;63221;51.860;-2.188;2023-06-10T04:33:28;18.83;;;9.18;;
74689;SDS011;63221;51.860;-2.188;2023-06-10T04:35:54;20.10;;;8.97;;
74689;SDS011;63221;51.860;-2.188;2023-06-10T04:38:20;21.00;;;8.35;;
74689;SDS011;63221;51.860;-2.188;2023-06-10T04:40:46;27.50;;;8.43;;
74689;SDS011;63221;51.860;-2.188;2023-06-10T04:43:11;17.02;;;8.15;;
74689;SDS011;63221;51.860;-2.188;2023-06-10T04:45:37;19.25;;;9.30;;
74689;SDS011;63221;51.860;-2.188;2023-06-10T04:48:03;16.73;;;8.60;;
74689;SDS011;63221;51.860;-2.188;2023-06-10T04:50:28;21.20;;;7.73;;
74689;SDS011;63221;51.860;-2.188;2023-06-10T04:52:54;16.30;;;8.05;;
74689;SDS011;63221;51.860;-2.188;2023-06-10T04:55:22;17.55;;;8.18;;
74689;SDS011;63221;51.860;-2.188;2023-06-10T04:57:48;18.60;;;8.17;;
74689;SDS011;63221;51.860;-2.188;2023-06-10T05:00:13;14.95;;;7.82;;
74689;SDS011;63221;51.860;-2.188;2023-06-10T05:02:39;15.37;;;6.67;;
74689;SDS011;63221;51.860;-2.188;2023-06-10T05:05:04;16.83;;;7.90;;
74689;SDS011;63221;51.860;-2.188;2023-06-10T05:07:31;17.17;;;8.00;;
74689;SDS011;63221;51.860;-2.188;2023-06-10T05:09:56;19.23;;;7.90;;
74689;SDS011;63221;51.860;-2.188;2023-06-10T05:12:22;14.93;;;7.90;;
74689;SDS011;63221;51.860;-2.188;2023-06-10T05:14:47;18.07;;;7.80;;
74689;SDS011;63221;51.860;-2.188;2023-06-10T05:17:12;15.90;;;7.47;;
74689;SDS011;63221;51.860;-2.188;2023-06-10T05:19:38;13.50;;;7.57;;
74689;SDS011;63221;51.860;-2.188;2023-06-10T05:22:03;15.38;;;6.80;;
74689;SDS011;63221;51.860;-2.188;2023-06-10T05:24:29;18.50;;;8.57;;
74689;SDS011;63221;51.860;-2.188;2023-06-10T05:26:54;20.73;;;7.47;;
74689;SDS011;63221;51.860;-2.188;2023-06-10T05:29:20;16.63;;;8.02;;
74689;SDS011;63221;51.860;-2.188;2023-06-10T05:31:45;18.40;;;7.70;;
74689;SDS011;63221;51.860;-2.188;2023-06-10T05:34:11;14.20;;;7.20;;
74689;SDS011;63221;51.860;-2.188;2023-06-10T05:36:36;15.13;;;7.90;;
74689;SDS011;63221;51.860;-2.188;2023-06-10T05:39:02;16.55;;;7.38;;
74689;SDS011;63221;51.860;-2.188;2023-06-10T05:41:28;15.10;;;7.97;;
74689;SDS011;63221;51.860;-2.188;2023-06-10T05:43:53;14.73;;;7.30;;
74689;SDS011;63221;51.860;-2.188;2023-06-10T05:46:19;18.70;;;7.50;;
74689;SDS011;63221;51.860;-2.188;2023-06-10T05:48:44;16.35;;;7.95;;
74689;SDS011;63221;51.860;-2.188;2023-06-10T05:51:10;16.47;;;7.37;;
74689;SDS011;63221;51.860;-2.188;2023-06-10T05:53:35;16.77;;;6.73;;
74689;SDS011;63221;51.860;-2.188;2023-06-10T05:56:01;16.73;;;7.47;;
74689;SDS011;63221;51.860;-2.188;2023-06-10T05:58:26;15.10;;;7.30;;
74689;SDS011;63221;51.860;-2.188;2023-06-10T06:00:52;16.20;;;7.90;;
74689;SDS011;63221;51.860;-2.188;2023-06-10T06:03:17;15.00;;;7.73;;
74689;SDS011;63221;51.860;-2.188;2023-06-10T06:05:42;15.37;;;7.77;;
74689;SDS011;63221;51.860;-2.188;2023-06-10T06:08:09;16.43;;;7.60;;
74689;SDS011;63221;51.860;-2.188;2023-06-10T06:10:35;19.25;;;8.20;;
74689;SDS011;63221;51.860;-2.188;2023-06-10T06:13:01;16.30;;;7.23;;
74689;SDS011;63221;51.860;-2.188;2023-06-10T06:15:27;14.02;;;6.63;;
74689;SDS011;63221;51.860;-2.188;2023-06-10T06:17:52;15.47;;;6.73;;
74689;SDS011;63221;51.860;-2.188;2023-06-10T06:20:19;15.57;;;6.63;;
74689;SDS011;63221;51.860;-2.188;2023-06-10T06:22:44;12.93;;;6.30;;
74689;SDS011;63221;51.860;-2.188;2023-06-10T06:25:10;12.38;;;7.13;;
74689;SDS011;63221;51.860;-2.188;2023-06-10T06:27:36;14.47;;;6.77;;
74689;SDS011;63221;51.860;-2.188;2023-06-10T06:30:01;15.73;;;7.13;;
74689;SDS011;63221;51.860;-2.188;2023-06-10T06:32:26;20.35;;;7.68;;
74689;SDS011;63221;51.860;-2.188;2023-06-10T06:34:52;13.13;;;7.50;;
74689;SDS011;63221;51.860;-2.188;2023-06-10T06:37:25;15.13;;;7.00;;
74689;SDS011;63221;51.860;-2.188;2023-06-10T06:39:51;15.45;;;6.93;;
74689;SDS011;63221;51.860;-2.188;2023-06-10T06:42:17;15.55;;;6.63;;
74689;SDS011;63221;51.860;-2.188;2023-06-10T06:44:43;16.30;;;7.17;;
74689;SDS011;63221;51.860;-2.188;2023-06-10T06:47:08;15.40;;;7.75;;
74689;SDS011;63221;51.860;-2.188;2023-06-10T06:49:34;18.83;;;6.20;;
74689;SDS011;63221;51.860;-2.188;2023-06-10T06:51:59;17.83;;;6.43;;
74689;SDS011;63221;51.860;-2.188;2023-06-10T06:54:25;19.80;;;7.00;;
74689;SDS011;63221;51.860;-2.188;2023-06-10T06:56:50;17.60;;;6.83;;
74689;SDS011;63221;51.860;-2.188;2023-06-10T06:59:16;17.17;;;8.07;;
74689;SDS011;63221;51.860;-2.188;2023-06-10T07:01:44;13.95;;;6.95;;
74689;SDS011;63221;51.860;-2.188;2023-06-10T07:04:10;18.13;;;7.55;;
74689;SDS011;63221;51.860;-2.188;2023-06-10T07:06:35;14.47;;;7.40;;
74689;SDS011;63221;51.860;-2.188;2023-06-10T07:09:01;16.20;;;7.63;;
74689;SDS011;63221;51.860;-2.188;2023-06-10T07:11:26;10.40;;;6.00;;
74689;SDS011;63221;51.860;-2.188;2023-06-10T07:13:52;14.03;;;6.97;;
74689;SDS011;63221;51.860;-2.188;2023-06-10T07:16:17;15.35;;;7.30;;
74689;SDS011;63221;51.860;-2.188;2023-06-10T07:18:45;13.77;;;6.67;;
74689;SDS011;63221;51.860;-2.188;2023-06-10T07:21:11;15.02;;;7.30;;
74689;SDS011;63221;51.860;-2.188;2023-06-10T07:23:36;14.70;;;6.80;;
74689;SDS011;63221;51.860;-2.188;2023-06-10T07:26:02;16.07;;;6.47;;
74689;SDS011;63221;51.860;-2.188;2023-06-10T07:28:27;15.67;;;7.60;;
74689;SDS011;63221;51.860;-2.188;2023-06-10T07:30:52;13.05;;;7.43;;
74689;SDS011;63221;51.860;-2.188;2023-06-10T07:33:18;13.33;;;6.50;;
74689;SDS011;63221;51.860;-2.188;2023-06-10T07:35:43;12.20;;;6.83;;
74689;SDS011;63221;51.860;-2.188;2023-06-10T07:38:09;11.90;;;5.67;;
74689;SDS011;63221;51.860;-2.188;2023-06-10T07:40:34;16.13;;;7.60;;
74689;SDS011;63221;51.860;-2.188;2023-06-10T07:43:00;14.95;;;6.47;;
74689;SDS011;63221;51.860;-2.188;2023-06-10T07:45:25;14.70;;;6.87;;
74689;SDS011;63221;51.860;-2.188;2023-06-10T07:47:50;14.27;;;6.67;;
74689;SDS011;63221;51.860;-2.188;2023-06-10T07:50:16;14.60;;;7.10;;
74689;SDS011;63221;51.860;-2.188;2023-06-10T07:52:41;13.80;;;7.00;;
74689;SDS011;63221;51.860;-2.188;2023-06-10T07:55:07;14.13;;;7.07;;
74689;SDS011;63221;51.860;-2.188;2023-06-10T07:57:32;12.97;;;6.07;;
74689;SDS011;63221;51.860;-2.188;2023-06-10T08:00:01;13.55;;;6.53;;
74689;SDS011;63221;51.860;-2.188;2023-06-10T08:02:29;14.73;;;6.75;;
74689;SDS011;63221;51.860;-2.188;2023-06-10T08:04:54;14.90;;;7.60;;
74689;SDS011;63221;51.860;-2.188;2023-06-10T08:07:20;17.73;;;7.17;;
74689;SDS011;63221;51.860;-2.188;2023-06-10T08:09:45;11.93;;;6.73;;
74689;SDS011;63221;51.860;-2.188;2023-06-10T08:12:11;14.63;;;7.27;;
74689;SDS011;63221;51.860;-2.188;2023-06-10T08:14:36;11.70;;;6.83;;
74689;SDS011;63221;51.860;-2.188;2023-06-10T08:17:02;13.88;;;6.38;;
74689;SDS011;63221;51.860;-2.188;2023-06-10T08:19:30;12.10;;;6.32;;
74689;SDS011;63221;51.860;-2.188;2023-06-10T08:21:55;13.37;;;6.20;;
74689;SDS011;63221;51.860;-2.188;2023-06-10T08:24:21;16.53;;;7.53;;
74689;SDS011;63221;51.860;-2.188;2023-06-10T08:26:46;12.40;;;7.20;;
74689;SDS011;63221;51.860;-2.188;2023-06-10T08:29:12;17.07;;;7.33;;
74689;SDS011;63221;51.860;-2.188;2023-06-10T08:31:41;16.60;;;7.07;;
74689;SDS011;63221;51.860;-2.188;2023-06-10T08:34:07;16.42;;;8.00;;
74689;SDS011;63221;51.860;-2.188;2023-06-10T08:36:33;12.60;;;6.67;;
74689;SDS011;63221;51.860;-2.188;2023-06-10T08:38:58;15.60;;;7.70;;
74689;SDS011;63221;51.860;-2.188;2023-06-10T08:41:24;13.50;;;7.23;;
74689;SDS011;63221;51.860;-2.188;2023-06-10T08:44:53;15.00;;;6.90;;
74689;SDS011;63221;51.860;-2.188;2023-06-10T08:46:56;13.50;;;7.50;;
74689;SDS011;63221;51.860;-2.188;2023-06-10T08:49:24;16.63;;;8.23;;
74689;SDS011;63221;51.860;-2.188;2023-06-10T08:51:51;14.48;;;6.65;;
74689;SDS011;63221;51.860;-2.188;2023-06-10T08:54:21;14.50;;;6.50;;
74689;SDS011;63221;51.860;-2.188;2023-06-10T08:56:50;18.38;;;7.65;;
74689;SDS011;63221;51.860;-2.188;2023-06-10T08:59:16;15.63;;;7.70;;
74689;SDS011;63221;51.860;-2.188;2023-06-10T09:01:43;13.90;;;7.40;;
74689;SDS011;63221;51.860;-2.188;2023-06-10T09:04:09;12.10;;;6.70;;
74689;SDS011;63221;51.860;-2.188;2023-06-10T09:06:35;15.82;;;7.72;;
74689;SDS011;63221;51.860;-2.188;2023-06-10T09:09:01;12.63;;;7.70;;
74689;SDS011;63221;51.860;-2.188;2023-06-10T09:11:27;14.32;;;7.55;;
74689;SDS011;63221;51.860;-2.188;2023-06-10T09:13:53;13.23;;;7.67;;
74689;SDS011;63221;51.860;-2.188;2023-06-10T09:16:18;15.52;;;7.65;;
74689;SDS011;63221;51.860;-2.188;2023-06-10T09:18:44;18.90;;;8.00;;
74689;SDS011;63221;51.860;-2.188;2023-06-10T09:21:09;13.10;;;7.27;;
74689;SDS011;63221;51.860;-2.188;2023-06-10T09:23:35;12.63;;;7.00;;
74689;SDS011;63221;51.860;-2.188;2023-06-10T09:26:02;17.10;;;6.87;;
74689;SDS011;63221;51.860;-2.188;2023-06-10T09:28:30;10.68;;;6.65;;
74689;SDS011;63221;51.860;-2.188;2023-06-10T09:31:02;12.07;;;7.28;;
74689;SDS011;63221;51.860;-2.188;2023-06-10T09:33:29;19.55;;;7.95;;
74689;SDS011;63221;51.860;-2.188;2023-06-10T09:35:54;15.63;;;7.10;;
74689;SDS011;63221;51.860;-2.188;2023-06-10T09:38:22;13.70;;;7.28;;
74689;SDS011;63221;51.860;-2.188;2023-06-10T09:40:48;15.73;;;7.10;;
74689;SDS011;63221;51.860;-2.188;2023-06-10T09:43:15;14.00;;;6.68;;
74689;SDS011;63221;51.860;-2.188;2023-06-10T09:45:40;13.00;;;7.87;;
74689;SDS011;63221;51.860;-2.188;2023-06-10T09:48:05;12.68;;;7.00;;
74689;SDS011;63221;51.860;-2.188;2023-06-10T09:50:34;17.23;;;7.13;;
74689;SDS011;63221;51.860;-2.188;2023-06-10T09:53:07;14.90;;;7.70;;
74689;SDS011;63221;51.860;-2.188;2023-06-10T09:55:32;13.20;;;6.73;;
74689;SDS011;63221;51.860;-2.188;2023-06-10T09:57:58;13.90;;;7.30;;
74689;SDS011;63221;51.860;-2.188;2023-06-10T10:00:24;12.48;;;7.15;;
74689;SDS011;63221;51.860;-2.188;2023-06-10T10:02:51;11.47;;;6.90;;
74689;SDS011;63221;51.860;-2.188;2023-06-10T10:05:19;11.82;;;6.43;;
74689;SDS011;63221;51.860;-2.188;2023-06-10T10:07:45;16.05;;;7.78;;
74689;SDS011;63221;51.860;-2.188;2023-06-10T10:10:12;13.70;;;7.20;;
74689;SDS011;63221;51.860;-2.188;2023-06-10T10:12:38;13.83;;;7.53;;
74689;SDS011;63221;51.860;-2.188;2023-06-10T10:15:07;11.57;;;7.68;;
74689;SDS011;63221;51.860;-2.188;2023-06-10T10:17:34;12.50;;;6.35;;
74689;SDS011;63221;51.860;-2.188;2023-06-10T10:20:03;13.85;;;8.02;;
74689;SDS011;63221;51.860;-2.188;2023-06-10T10:22:31;13.73;;;6.68;;
74689;SDS011;63221;51.860;-2.188;2023-06-10T10:25:01;16.20;;;7.60;;
74689;SDS011;63221;51.860;-2.188;2023-06-10T10:27:30;12.35;;;7.03;;
74689;SDS011;63221;51.860;-2.188;2023-06-10T10:29:59;15.63;;;8.60;;
74689;SDS011;63221;51.860;-2.188;2023-06-10T10:32:43;16.83;;;6.70;;
74689;SDS011;63221;51.860;-2.188;2023-06-10T10:35:22;12.80;;;6.93;;
74689;SDS011;63221;51.860;-2.188;2023-06-10T10:37:49;12.35;;;7.13;;
74689;SDS011;63221;51.860;-2.188;2023-06-10T10:40:16;12.63;;;7.20;;
74689;SDS011;63221;51.860;-2.188;2023-06-10T10:42:42;11.37;;;7.50;;
74689;SDS011;63221;51.860;-2.188;2023-06-10T10:45:08;9.50;;;6.18;;
74689;SDS011;63221;51.860;-2.188;2023-06-10T10:47:34;14.75;;;7.22;;
74689;SDS011;63221;51.860;-2.188;2023-06-10T10:50:03;10.13;;;6.28;;
74689;SDS011;63221;51.860;-2.188;2023-06-10T10:53:01;12.60;;;7.90;;
74689;SDS011;63221;51.860;-2.188;2023-06-10T10:55:27;13.43;;;7.33;;
74689;SDS011;63221;51.860;-2.188;2023-06-10T10:57:56;11.18;;;6.75;;
74689;SDS011;63221;51.860;-2.188;2023-06-10T11:02:58;12.80;;;6.68;;
74689;SDS011;63221;51.860;-2.188;2023-06-10T11:05:32;14.33;;;7.10;;
74689;SDS011;63221;51.860;-2.188;2023-06-10T11:08:00;11.88;;;6.55;;
74689;SDS011;63221;51.860;-2.188;2023-06-10T11:11:17;11.43;;;7.13;;
74689;SDS011;63221;51.860;-2.188;2023-06-10T11:13:20;12.27;;;7.30;;
74689;SDS011;63221;51.860;-2.188;2023-06-10T11:15:50;11.38;;;6.70;;
74689;SDS011;63221;51.860;-2.188;2023-06-10T11:28:42;10.52;;;6.68;;
74689;SDS011;63221;51.860;-2.188;2023-06-10T11:31:40;11.15;;;6.07;;
74689;SDS011;63221;51.860;-2.188;2023-06-10T11:34:10;11.60;;;6.93;;
74689;SDS011;63221;51.860;-2.188;2023-06-10T11:36:42;11.40;;;8.00;;
74689;SDS011;63221;51.860;-2.188;2023-06-10T11:39:10;11.63;;;7.25;;
74689;SDS011;63221;51.860;-2.188;2023-06-10T11:41:37;9.02;;;6.28;;
74689;SDS011;63221;51.860;-2.188;2023-06-10T11:44:04;13.75;;;6.85;;
74689;SDS011;63221;51.860;-2.188;2023-06-10T11:46:33;8.83;;;5.93;;
74689;SDS011;63221;51.860;-2.188;2023-06-10T11:49:00;11.75;;;6.63;;
74689;SDS011;63221;51.860;-2.188;2023-06-10T11:51:27;9.50;;;5.40;;
74689;SDS011;63221;51.860;-2.188;2023-06-10T11:54:02;12.32;;;6.97;;
74689;SDS011;63221;51.860;-2.188;2023-06-10T11:56:29;11.37;;;6.40;;
74689;SDS011;63221;51.860;-2.188;2023-06-10T12:01:29;8.38;;;6.43;;
74689;SDS011;63221;51.860;-2.188;2023-06-10T12:04:02;9.07;;;5.63;;
74689;SDS011;63221;51.860;-2.188;2023-06-10T12:06:39;9.07;;;6.50;;
74689;SDS011;63221;51.860;-2.188;2023-06-10T12:11:43;8.95;;;6.45;;
74689;SDS011;63221;51.860;-2.188;2023-06-10T12:14:09;11.13;;;6.45;;
74689;SDS011;63221;51.860;-2.188;2023-06-10T12:16:34;7.57;;;5.90;;
74689;SDS011;63221;51.860;-2.188;2023-06-10T12:19:03;8.80;;;6.20;;
74689;SDS011;63221;51.860;-2.188;2023-06-10T12:21:30;8.50;;;6.22;;
74689;SDS011;63221;51.860;-2.188;2023-06-10T12:24:06;7.68;;;6.57;;
74689;SDS011;63221;51.860;-2.188;2023-06-10T12:26:39;10.43;;;6.50;;
74689;SDS011;63221;51.860;-2.188;2023-06-10T12:29:21;8.83;;;6.43;;
74689;SDS011;63221;51.860;-2.188;2023-06-10T12:34:17;6.35;;;5.57;;
74689;SDS011;63221;51.860;-2.188;2023-06-10T12:36:47;8.37;;;5.50;;
74689;SDS011;63221;51.860;-2.188;2023-06-10T12:39:13;9.13;;;5.78;;
74689;SDS011;63221;51.860;-2.188;2023-06-10T12:41:39;7.30;;;5.80;;
74689;SDS011;63221;51.860;-2.188;2023-06-10T12:44:05;8.90;;;5.65;;
74689;SDS011;63221;51.860;-2.188;2023-06-10T12:46:37;8.23;;;6.43;;
74689;SDS011;63221;51.860;-2.188;2023-06-10T12:49:02;8.02;;;6.55;;
74689;SDS011;63221;51.860;-2.188;2023-06-10T12:51:28;7.80;;;6.10;;
74689;SDS011;63221;51.860;-2.188;2023-06-10T12:53:53;7.13;;;6.10;;
74689;SDS011;63221;51.860;-2.188;2023-06-10T12:56:18;8.82;;;5.60;;
74689;SDS011;63221;51.860;-2.188;2023-06-10T12:58:44;6.97;;;6.27;;
74689;SDS011;63221;51.860;-2.188;2023-06-10T13:01:09;7.73;;;5.90;;
74689;SDS011;63221;51.860;-2.188;2023-06-10T13:03:34;10.20;;;6.60;;
74689;SDS011;63221;51.860;-2.188;2023-06-10T13:06:00;9.73;;;6.57;;
74689;SDS011;63221;51.860;-2.188;2023-06-10T13:08:25;7.00;;;6.30;;
74689;SDS011;63221;51.860;-2.188;2023-06-10T13:10:51;9.87;;;6.83;;
74689;SDS011;63221;51.860;-2.188;2023-06-10T13:13:16;8.80;;;5.70;;
74689;SDS011;63221;51.860;-2.188;2023-06-10T13:15:42;9.80;;;6.45;;
74689;SDS011;63221;51.860;-2.188;2023-06-10T13:18:08;6.90;;;6.13;;
74689;SDS011;63221;51.860;-2.188;2023-06-10T13:20:33;7.70;;;6.82;;
74689;SDS011;63221;51.860;-2.188;2023-06-10T13:22:59;7.43;;;6.03;;
74689;SDS011;63221;51.860;-2.188;2023-06-10T13:25:25;7.20;;;5.53;;
74689;SDS011;63221;51.860;-2.188;2023-06-10T13:27:50;7.27;;;6.13;;
74689;SDS011;63221;51.860;-2.188;2023-06-10T13:30:15;8.57;;;6.83;;
74689;SDS011;63221;51.860;-2.188;2023-06-10T13:32:41;8.07;;;6.65;;
74689;SDS011;63221;51.860;-2.188;2023-06-10T13:35:06;7.73;;;6.17;;
74689;SDS011;63221;51.860;-2.188;2023-06-10T13:37:32;9.30;;;6.65;;
74689;SDS011;63221;51.860;-2.188;2023-06-10T13:39:58;6.90;;;6.20;;
74689;SDS011;63221;51.860;-2.188;2023-06-10T13:42:24;7.93;;;6.40;;
74689;SDS011;63221;51.860;-2.188;2023-06-10T13:44:51;8.38;;;7.47;;
74689;SDS011;63221;51.860;-2.188;2023-06-10T13:47:16;9.47;;;7.20;;
74689;SDS011;63221;51.860;-2.188;2023-06-10T13:49:42;8.40;;;6.90;;
74689;SDS011;63221;51.860;-2.188;2023-06-10T13:52:07;9.35;;;6.88;;
74689;SDS011;63221;51.860;-2.188;2023-06-10T13:54:33;10.37;;;6.73;;
74689;SDS011;63221;51.860;-2.188;2023-06-10T13:57:01;8.75;;;7.75;;
74689;SDS011;63221;51.860;-2.188;2023-06-10T13:59:27;10.57;;;8.50;;
74689;SDS011;63221;51.860;-2.188;2023-06-10T14:01:52;10.20;;;7.37;;
74689;SDS011;63221;51.860;-2.188;2023-06-10T14:04:18;8.82;;;7.47;;
74689;SDS011;63221;51.860;-2.188;2023-06-10T14:06:43;9.27;;;7.00;;
74689;SDS011;63221;51.860;-2.188;2023-06-10T14:09:09;8.38;;;7.32;;
74689;SDS011;63221;51.860;-2.188;2023-06-10T14:11:35;9.50;;;7.20;;
74689;SDS011;63221;51.860;-2.188;2023-06-10T14:14:00;9.33;;;8.23;;
74689;SDS011;63221;51.860;-2.188;2023-06-10T14:16:26;8.07;;;6.80;;
74689;SDS011;63221;51.860;-2.188;2023-06-10T14:18:51;10.07;;;7.53;;
74689;SDS011;63221;51.860;-2.188;2023-06-10T14:21:17;8.40;;;7.10;;
74689;SDS011;63221;51.860;-2.188;2023-06-10T14:23:42;8.23;;;6.80;;
74689;SDS011;63221;51.860;-2.188;2023-06-10T14:26:08;9.57;;;7.18;;
74689;SDS011;63221;51.860;-2.188;2023-06-10T14:28:34;8.68;;;7.38;;
74689;SDS011;63221;51.860;-2.188;2023-06-10T14:31:00;8.13;;;7.33;;
74689;SDS011;63221;51.860;-2.188;2023-06-10T14:33:25;8.30;;;7.50;;
74689;SDS011;63221;51.860;-2.188;2023-06-10T14:35:51;8.55;;;7.68;;
74689;SDS011;63221;51.860;-2.188;2023-06-10T14:38:16;9.20;;;7.77;;
74689;SDS011;63221;51.860;-2.188;2023-06-10T14:40:42;10.97;;;8.57;;